sensor_id;sensor_type;location;lat;lon;timestamp;P1;durP1;ratioP1;P2;durP2;ratioP2
20894;SDS011;10607;42.066;24.742;2023-03-14T00:02:05;6.10;;;3.63;;
20894;SDS011;10607;42.066;24.742;2023-03-14T00:04:31;8.07;;;4.13;;
20894;SDS011;10607;42.066;24.742;2023-03-14T00:06:56;6.87;;;3.97;;
20894;SDS011;10607;42.066;24.742;2023-03-14T00:09:21;14.70;;;5.73;;
20894;SDS011;10607;42.066;24.742;2023-03-14T00:11:47;10.67;;;4.83;;
20894;SDS011;10607;42.066;24.742;2023-03-14T00:14:12;5.97;;;4.33;;
20894;SDS011;10607;42.066;24.742;2023-03-14T00:16:37;8.07;;;4.87;;
20894;SDS011;10607;42.066;24.742;2023-03-14T00:19:02;5.93;;;4.10;;
20894;SDS011;10607;42.066;24.742;2023-03-14T00:21:28;6.00;;;3.80;;
20894;SDS011;10607;42.066;24.742;2023-03-14T00:23:53;5.90;;;3.50;;
20894;SDS011;10607;42.066;24.742;2023-03-14T00:26:19;5.80;;;3.80;;
20894;SDS011;10607;42.066;24.742;2023-03-14T00:28:45;4.20;;;3.30;;
20894;SDS011;10607;42.066;24.742;2023-03-14T00:31:12;7.07;;;4.17;;
20894;SDS011;10607;42.066;24.742;2023-03-14T00:33:38;5.93;;;4.27;;
20894;SDS011;10607;42.066;24.742;2023-03-14T00:36:04;13.07;;;5.63;;
20894;SDS011;10607;42.066;24.742;2023-03-14T00:38:30;8.50;;;4.77;;
20894;SDS011;10607;42.066;24.742;2023-03-14T00:40:55;6.93;;;4.37;;
20894;SDS011;10607;42.066;24.742;2023-03-14T00:43:21;7.00;;;3.87;;
20894;SDS011;10607;42.066;24.742;2023-03-14T00:45:52;5.77;;;3.90;;
20894;SDS011;10607;42.066;24.742;2023-03-14T00:48:18;8.60;;;4.27;;
20894;SDS011;10607;42.066;24.742;2023-03-14T00:50:43;9.60;;;4.40;;
20894;SDS011;10607;42.066;24.742;2023-03-14T00:53:09;9.57;;;4.37;;
20894;SDS011;10607;42.066;24.742;2023-03-14T00:55:38;8.17;;;4.60;;
20894;SDS011;10607;42.066;24.742;2023-03-14T00:58:03;10.43;;;4.40;;
20894;SDS011;10607;42.066;24.742;2023-03-14T01:00:29;4.97;;;3.87;;
20894;SDS011;10607;42.066;24.742;2023-03-14T01:02:54;6.73;;;3.97;;
20894;SDS011;10607;42.066;24.742;2023-03-14T01:05:21;6.13;;;4.57;;
20894;SDS011;10607;42.066;24.742;2023-03-14T01:07:46;8.97;;;4.20;;
20894;SDS011;10607;42.066;24.742;2023-03-14T01:10:11;7.47;;;4.67;;
20894;SDS011;10607;42.066;24.742;2023-03-14T01:12:37;6.97;;;4.63;;
20894;SDS011;10607;42.066;24.742;2023-03-14T01:15:02;8.47;;;4.13;;
20894;SDS011;10607;42.066;24.742;2023-03-14T01:17:27;8.27;;;5.03;;
20894;SDS011;10607;42.066;24.742;2023-03-14T01:19:53;6.67;;;4.63;;
20894;SDS011;10607;42.066;24.742;2023-03-14T01:22:18;5.73;;;4.50;;
20894;SDS011;10607;42.066;24.742;2023-03-14T01:24:43;9.10;;;4.90;;
20894;SDS011;10607;42.066;24.742;2023-03-14T01:27:08;8.60;;;5.00;;
20894;SDS011;10607;42.066;24.742;2023-03-14T01:29:34;7.43;;;5.33;;
20894;SDS011;10607;42.066;24.742;2023-03-14T01:31:59;7.27;;;5.17;;
20894;SDS011;10607;42.066;24.742;2023-03-14T01:34:24;9.37;;;4.80;;
20894;SDS011;10607;42.066;24.742;2023-03-14T01:36:50;7.83;;;5.37;;
20894;SDS011;10607;42.066;24.742;2023-03-14T01:39:15;8.47;;;5.70;;
20894;SDS011;10607;42.066;24.742;2023-03-14T01:41:40;8.90;;;5.40;;
20894;SDS011;10607;42.066;24.742;2023-03-14T01:44:08;8.20;;;5.70;;
20894;SDS011;10607;42.066;24.742;2023-03-14T01:56:53;10.30;;;5.97;;
20894;SDS011;10607;42.066;24.742;2023-03-14T01:59:20;8.33;;;5.80;;
20894;SDS011;10607;42.066;24.742;2023-03-14T02:01:46;10.13;;;5.77;;
20894;SDS011;10607;42.066;24.742;2023-03-14T02:04:12;12.50;;;6.00;;
20894;SDS011;10607;42.066;24.742;2023-03-14T02:06:40;11.97;;;6.70;;
20894;SDS011;10607;42.066;24.742;2023-03-14T02:09:07;11.13;;;6.57;;
20894;SDS011;10607;42.066;24.742;2023-03-14T02:11:32;12.20;;;6.73;;
20894;SDS011;10607;42.066;24.742;2023-03-14T02:13:58;8.37;;;5.73;;
20894;SDS011;10607;42.066;24.742;2023-03-14T02:16:24;8.30;;;5.77;;
20894;SDS011;10607;42.066;24.742;2023-03-14T02:18:49;9.73;;;6.20;;
20894;SDS011;10607;42.066;24.742;2023-03-14T02:26:26;8.40;;;5.50;;
20894;SDS011;10607;42.066;24.742;2023-03-14T02:28:53;10.30;;;5.47;;
20894;SDS011;10607;42.066;24.742;2023-03-14T02:31:18;11.93;;;5.73;;
20894;SDS011;10607;42.066;24.742;2023-03-14T02:33:45;12.00;;;6.57;;
20894;SDS011;10607;42.066;24.742;2023-03-14T02:36:11;9.33;;;6.40;;
20894;SDS011;10607;42.066;24.742;2023-03-14T02:41:03;9.60;;;5.70;;
20894;SDS011;10607;42.066;24.742;2023-03-14T02:43:29;13.40;;;6.50;;
20894;SDS011;10607;42.066;24.742;2023-03-14T02:45:54;9.10;;;5.73;;
20894;SDS011;10607;42.066;24.742;2023-03-14T02:48:20;16.07;;;6.37;;
20894;SDS011;10607;42.066;24.742;2023-03-14T02:50:47;10.03;;;5.70;;
20894;SDS011;10607;42.066;24.742;2023-03-14T02:53:17;11.53;;;5.37;;
20894;SDS011;10607;42.066;24.742;2023-03-14T02:55:46;10.47;;;6.03;;
20894;SDS011;10607;42.066;24.742;2023-03-14T02:58:11;11.13;;;6.00;;
20894;SDS011;10607;42.066;24.742;2023-03-14T03:00:37;9.27;;;5.70;;
20894;SDS011;10607;42.066;24.742;2023-03-14T03:03:02;11.90;;;5.63;;
20894;SDS011;10607;42.066;24.742;2023-03-14T03:05:27;11.60;;;6.50;;
20894;SDS011;10607;42.066;24.742;2023-03-14T03:07:53;14.87;;;8.47;;
20894;SDS011;10607;42.066;24.742;2023-03-14T03:10:18;13.30;;;7.87;;
20894;SDS011;10607;42.066;24.742;2023-03-14T03:12:43;11.17;;;7.20;;
20894;SDS011;10607;42.066;24.742;2023-03-14T03:15:09;10.80;;;7.10;;
20894;SDS011;10607;42.066;24.742;2023-03-14T03:17:34;9.70;;;6.53;;
20894;SDS011;10607;42.066;24.742;2023-03-14T03:20:00;9.50;;;6.10;;
20894;SDS011;10607;42.066;24.742;2023-03-14T03:22:25;14.30;;;7.10;;
20894;SDS011;10607;42.066;24.742;2023-03-14T03:24:50;14.43;;;6.80;;
20894;SDS011;10607;42.066;24.742;2023-03-14T03:27:16;12.40;;;7.20;;
20894;SDS011;10607;42.066;24.742;2023-03-14T03:29:41;12.93;;;6.60;;
20894;SDS011;10607;42.066;24.742;2023-03-14T03:32:06;11.43;;;6.83;;
20894;SDS011;10607;42.066;24.742;2023-03-14T03:34:31;13.83;;;6.60;;
20894;SDS011;10607;42.066;24.742;2023-03-14T03:36:57;11.20;;;7.23;;
20894;SDS011;10607;42.066;24.742;2023-03-14T03:39:22;14.03;;;6.60;;
20894;SDS011;10607;42.066;24.742;2023-03-14T03:41:47;12.93;;;7.37;;
20894;SDS011;10607;42.066;24.742;2023-03-14T03:44:13;12.07;;;6.93;;
20894;SDS011;10607;42.066;24.742;2023-03-14T03:46:38;11.60;;;7.03;;
20894;SDS011;10607;42.066;24.742;2023-03-14T03:49:03;10.13;;;6.53;;
20894;SDS011;10607;42.066;24.742;2023-03-14T03:51:29;11.97;;;7.43;;
20894;SDS011;10607;42.066;24.742;2023-03-14T03:53:55;12.87;;;7.90;;
20894;SDS011;10607;42.066;24.742;2023-03-14T03:56:21;14.23;;;7.40;;
20894;SDS011;10607;42.066;24.742;2023-03-14T03:58:46;13.93;;;9.47;;
20894;SDS011;10607;42.066;24.742;2023-03-14T04:01:11;13.10;;;8.10;;
20894;SDS011;10607;42.066;24.742;2023-03-14T04:03:37;10.93;;;6.73;;
20894;SDS011;10607;42.066;24.742;2023-03-14T04:06:06;12.40;;;7.13;;
20894;SDS011;10607;42.066;24.742;2023-03-14T04:08:32;12.10;;;6.80;;
20894;SDS011;10607;42.066;24.742;2023-03-14T04:10:58;12.27;;;6.30;;
20894;SDS011;10607;42.066;24.742;2023-03-14T04:13:23;9.20;;;5.57;;
20894;SDS011;10607;42.066;24.742;2023-03-14T04:15:49;11.23;;;5.90;;
20894;SDS011;10607;42.066;24.742;2023-03-14T04:18:14;12.97;;;5.47;;
20894;SDS011;10607;42.066;24.742;2023-03-14T04:20:40;11.13;;;5.53;;
20894;SDS011;10607;42.066;24.742;2023-03-14T04:23:05;8.60;;;5.93;;
20894;SDS011;10607;42.066;24.742;2023-03-14T04:25:30;12.33;;;5.50;;
20894;SDS011;10607;42.066;24.742;2023-03-14T04:27:55;9.07;;;5.40;;
20894;SDS011;10607;42.066;24.742;2023-03-14T04:30:21;11.60;;;5.83;;
20894;SDS011;10607;42.066;24.742;2023-03-14T04:32:47;7.50;;;5.27;;
20894;SDS011;10607;42.066;24.742;2023-03-14T04:35:12;9.33;;;5.57;;
20894;SDS011;10607;42.066;24.742;2023-03-14T04:37:37;10.57;;;5.47;;
20894;SDS011;10607;42.066;24.742;2023-03-14T04:40:03;12.90;;;7.47;;
20894;SDS011;10607;42.066;24.742;2023-03-14T04:42:31;11.03;;;6.87;;
20894;SDS011;10607;42.066;24.742;2023-03-14T04:44:56;14.80;;;6.87;;
20894;SDS011;10607;42.066;24.742;2023-03-14T04:47:21;16.83;;;7.77;;
20894;SDS011;10607;42.066;24.742;2023-03-14T04:49:46;16.70;;;7.27;;
20894;SDS011;10607;42.066;24.742;2023-03-14T04:52:12;22.27;;;11.07;;
20894;SDS011;10607;42.066;24.742;2023-03-14T04:54:37;18.23;;;9.43;;
20894;SDS011;10607;42.066;24.742;2023-03-14T04:57:02;16.13;;;7.60;;
20894;SDS011;10607;42.066;24.742;2023-03-14T04:59:28;9.93;;;6.57;;
20894;SDS011;10607;42.066;24.742;2023-03-14T05:01:53;27.17;;;11.20;;
20894;SDS011;10607;42.066;24.742;2023-03-14T05:04:18;26.57;;;13.97;;
20894;SDS011;10607;42.066;24.742;2023-03-14T05:06:43;23.87;;;10.53;;
20894;SDS011;10607;42.066;24.742;2023-03-14T05:09:09;18.87;;;7.93;;
20894;SDS011;10607;42.066;24.742;2023-03-14T05:11:34;27.70;;;10.87;;
20894;SDS011;10607;42.066;24.742;2023-03-14T05:14:00;26.60;;;11.30;;
20894;SDS011;10607;42.066;24.742;2023-03-14T05:16:25;31.77;;;12.50;;
20894;SDS011;10607;42.066;24.742;2023-03-14T05:18:50;28.37;;;10.57;;
20894;SDS011;10607;42.066;24.742;2023-03-14T05:21:15;19.43;;;8.80;;
20894;SDS011;10607;42.066;24.742;2023-03-14T05:23:41;10.97;;;7.00;;
20894;SDS011;10607;42.066;24.742;2023-03-14T05:26:06;14.03;;;8.20;;
20894;SDS011;10607;42.066;24.742;2023-03-14T05:28:31;16.87;;;7.70;;
20894;SDS011;10607;42.066;24.742;2023-03-14T05:30:57;12.77;;;8.03;;
20894;SDS011;10607;42.066;24.742;2023-03-14T05:33:22;14.67;;;7.43;;
20894;SDS011;10607;42.066;24.742;2023-03-14T05:35:47;14.70;;;7.60;;
20894;SDS011;10607;42.066;24.742;2023-03-14T05:38:12;13.10;;;7.63;;
20894;SDS011;10607;42.066;24.742;2023-03-14T05:40:38;11.77;;;7.47;;
20894;SDS011;10607;42.066;24.742;2023-03-14T05:43:03;19.90;;;8.93;;
20894;SDS011;10607;42.066;24.742;2023-03-14T05:45:28;17.23;;;7.77;;
20894;SDS011;10607;42.066;24.742;2023-03-14T05:47:54;13.13;;;8.17;;
20894;SDS011;10607;42.066;24.742;2023-03-14T05:50:19;17.67;;;8.57;;
20894;SDS011;10607;42.066;24.742;2023-03-14T05:52:44;14.17;;;8.20;;
20894;SDS011;10607;42.066;24.742;2023-03-14T05:55:10;16.17;;;8.10;;
20894;SDS011;10607;42.066;24.742;2023-03-14T05:57:35;15.47;;;8.50;;
20894;SDS011;10607;42.066;24.742;2023-03-14T06:00:00;14.13;;;8.07;;
20894;SDS011;10607;42.066;24.742;2023-03-14T06:02:26;14.90;;;8.67;;
20894;SDS011;10607;42.066;24.742;2023-03-14T06:04:51;18.87;;;9.70;;
20894;SDS011;10607;42.066;24.742;2023-03-14T06:07:17;20.90;;;8.13;;
20894;SDS011;10607;42.066;24.742;2023-03-14T06:09:42;12.40;;;8.10;;
20894;SDS011;10607;42.066;24.742;2023-03-14T06:12:07;15.77;;;9.33;;
20894;SDS011;10607;42.066;24.742;2023-03-14T06:14:32;15.17;;;8.97;;
20894;SDS011;10607;42.066;24.742;2023-03-14T06:16:58;20.37;;;8.67;;
20894;SDS011;10607;42.066;24.742;2023-03-14T06:19:24;16.27;;;9.13;;
20894;SDS011;10607;42.066;24.742;2023-03-14T06:21:49;19.43;;;8.77;;
20894;SDS011;10607;42.066;24.742;2023-03-14T06:24:15;15.33;;;8.57;;
20894;SDS011;10607;42.066;24.742;2023-03-14T06:26:40;14.97;;;8.27;;
20894;SDS011;10607;42.066;24.742;2023-03-14T06:29:05;17.00;;;8.50;;
20894;SDS011;10607;42.066;24.742;2023-03-14T06:31:31;15.43;;;8.53;;
20894;SDS011;10607;42.066;24.742;2023-03-14T06:33:56;13.50;;;8.97;;
20894;SDS011;10607;42.066;24.742;2023-03-14T06:36:21;19.60;;;8.50;;
20894;SDS011;10607;42.066;24.742;2023-03-14T06:38:47;16.70;;;9.13;;
20894;SDS011;10607;42.066;24.742;2023-03-14T06:41:12;18.00;;;9.50;;
20894;SDS011;10607;42.066;24.742;2023-03-14T06:43:37;35.37;;;15.47;;
20894;SDS011;10607;42.066;24.742;2023-03-14T06:46:02;37.83;;;15.63;;
20894;SDS011;10607;42.066;24.742;2023-03-14T06:48:28;17.63;;;10.63;;
20894;SDS011;10607;42.066;24.742;2023-03-14T06:50:53;15.03;;;9.73;;
20894;SDS011;10607;42.066;24.742;2023-03-14T06:53:18;22.67;;;10.93;;
20894;SDS011;10607;42.066;24.742;2023-03-14T06:55:44;18.40;;;11.03;;
20894;SDS011;10607;42.066;24.742;2023-03-14T06:58:10;20.13;;;10.40;;
20894;SDS011;10607;42.066;24.742;2023-03-14T07:00:35;20.07;;;11.20;;
20894;SDS011;10607;42.066;24.742;2023-03-14T07:03:01;17.87;;;10.10;;
20894;SDS011;10607;42.066;24.742;2023-03-14T07:05:26;17.77;;;11.73;;
20894;SDS011;10607;42.066;24.742;2023-03-14T07:07:51;23.00;;;11.63;;
20894;SDS011;10607;42.066;24.742;2023-03-14T07:10:17;23.23;;;11.33;;
20894;SDS011;10607;42.066;24.742;2023-03-14T07:12:42;18.07;;;10.63;;
20894;SDS011;10607;42.066;24.742;2023-03-14T07:15:08;26.07;;;12.10;;
20894;SDS011;10607;42.066;24.742;2023-03-14T07:17:33;16.43;;;10.80;;
20894;SDS011;10607;42.066;24.742;2023-03-14T07:19:58;20.07;;;11.57;;
20894;SDS011;10607;42.066;24.742;2023-03-14T07:22:24;19.33;;;10.27;;
20894;SDS011;10607;42.066;24.742;2023-03-14T07:24:49;14.27;;;9.20;;
20894;SDS011;10607;42.066;24.742;2023-03-14T07:27:15;15.53;;;9.67;;
20894;SDS011;10607;42.066;24.742;2023-03-14T07:29:40;21.00;;;9.33;;
20894;SDS011;10607;42.066;24.742;2023-03-14T07:32:05;16.17;;;9.53;;
20894;SDS011;10607;42.066;24.742;2023-03-14T07:34:31;19.20;;;9.70;;
20894;SDS011;10607;42.066;24.742;2023-03-14T07:36:56;19.87;;;9.03;;
20894;SDS011;10607;42.066;24.742;2023-03-14T07:39:21;11.73;;;7.63;;
20894;SDS011;10607;42.066;24.742;2023-03-14T07:41:47;14.53;;;7.53;;
20894;SDS011;10607;42.066;24.742;2023-03-14T07:44:12;13.35;;;8.40;;
20894;SDS011;10607;42.066;24.742;2023-03-14T07:46:37;14.33;;;8.07;;
20894;SDS011;10607;42.066;24.742;2023-03-14T07:49:02;10.32;;;7.20;;
20894;SDS011;10607;42.066;24.742;2023-03-14T07:51:28;11.73;;;7.13;;
20894;SDS011;10607;42.066;24.742;2023-03-14T07:53:53;11.25;;;6.32;;
20894;SDS011;10607;42.066;24.742;2023-03-14T07:56:18;10.75;;;6.88;;
20894;SDS011;10607;42.066;24.742;2023-03-14T07:58:44;16.30;;;7.57;;
20894;SDS011;10607;42.066;24.742;2023-03-14T08:01:09;12.60;;;7.82;;
20894;SDS011;10607;42.066;24.742;2023-03-14T08:03:34;15.07;;;7.57;;
20894;SDS011;10607;42.066;24.742;2023-03-14T08:06:00;10.77;;;7.20;;
20894;SDS011;10607;42.066;24.742;2023-03-14T08:08:25;14.55;;;7.20;;
20894;SDS011;10607;42.066;24.742;2023-03-14T08:10:50;12.90;;;7.38;;
20894;SDS011;10607;42.066;24.742;2023-03-14T08:13:15;12.15;;;7.40;;
20894;SDS011;10607;42.066;24.742;2023-03-14T08:15:41;16.77;;;6.70;;
20894;SDS011;10607;42.066;24.742;2023-03-14T08:18:06;15.38;;;7.28;;
20894;SDS011;10607;42.066;24.742;2023-03-14T08:20:32;16.83;;;7.05;;
20894;SDS011;10607;42.066;24.742;2023-03-14T08:22:58;11.88;;;6.85;;
20894;SDS011;10607;42.066;24.742;2023-03-14T08:25:23;11.75;;;6.32;;
20894;SDS011;10607;42.066;24.742;2023-03-14T08:27:48;11.15;;;6.32;;
20894;SDS011;10607;42.066;24.742;2023-03-14T08:30:15;12.63;;;7.97;;
20894;SDS011;10607;42.066;24.742;2023-03-14T08:32:40;8.48;;;6.28;;
20894;SDS011;10607;42.066;24.742;2023-03-14T08:35:06;11.15;;;6.35;;
20894;SDS011;10607;42.066;24.742;2023-03-14T08:37:32;10.90;;;5.90;;
20894;SDS011;10607;42.066;24.742;2023-03-14T08:39:57;11.75;;;6.43;;
20894;SDS011;10607;42.066;24.742;2023-03-14T08:42:23;11.00;;;6.22;;
20894;SDS011;10607;42.066;24.742;2023-03-14T08:44:48;11.48;;;6.05;;
20894;SDS011;10607;42.066;24.742;2023-03-14T08:47:13;10.65;;;6.03;;
20894;SDS011;10607;42.066;24.742;2023-03-14T08:49:39;11.25;;;5.68;;
20894;SDS011;10607;42.066;24.742;2023-03-14T08:52:04;11.05;;;6.50;;
20894;SDS011;10607;42.066;24.742;2023-03-14T08:54:30;10.05;;;5.20;;
20894;SDS011;10607;42.066;24.742;2023-03-14T08:56:55;14.48;;;6.55;;
20894;SDS011;10607;42.066;24.742;2023-03-14T08:59:21;17.23;;;6.63;;
20894;SDS011;10607;42.066;24.742;2023-03-14T09:01:46;13.50;;;6.15;;
20894;SDS011;10607;42.066;24.742;2023-03-14T09:04:11;12.07;;;6.18;;
20894;SDS011;10607;42.066;24.742;2023-03-14T09:06:37;16.08;;;6.70;;
20894;SDS011;10607;42.066;24.742;2023-03-14T09:09:02;10.20;;;6.35;;
20894;SDS011;10607;42.066;24.742;2023-03-14T09:11:28;11.48;;;5.80;;
20894;SDS011;10607;42.066;24.742;2023-03-14T09:13:53;10.40;;;6.88;;
20894;SDS011;10607;42.066;24.742;2023-03-14T09:16:18;8.40;;;5.85;;
20894;SDS011;10607;42.066;24.742;2023-03-14T09:18:43;11.70;;;5.07;;
20894;SDS011;10607;42.066;24.742;2023-03-14T09:21:09;7.22;;;4.82;;
20894;SDS011;10607;42.066;24.742;2023-03-14T09:23:34;11.00;;;5.40;;
20894;SDS011;10607;42.066;24.742;2023-03-14T09:25:59;9.23;;;5.43;;
20894;SDS011;10607;42.066;24.742;2023-03-14T09:28:25;14.60;;;6.13;;
20894;SDS011;10607;42.066;24.742;2023-03-14T09:30:51;7.68;;;4.85;;
20894;SDS011;10607;42.066;24.742;2023-03-14T09:33:16;9.75;;;5.03;;
20894;SDS011;10607;42.066;24.742;2023-03-14T09:35:42;8.25;;;5.05;;
20894;SDS011;10607;42.066;24.742;2023-03-14T09:38:07;14.25;;;6.13;;
20894;SDS011;10607;42.066;24.742;2023-03-14T09:40:36;10.70;;;5.50;;
20894;SDS011;10607;42.066;24.742;2023-03-14T09:43:01;9.25;;;5.13;;
20894;SDS011;10607;42.066;24.742;2023-03-14T09:45:28;9.95;;;4.95;;
20894;SDS011;10607;42.066;24.742;2023-03-14T09:47:54;12.40;;;5.43;;
20894;SDS011;10607;42.066;24.742;2023-03-14T09:50:20;8.30;;;4.95;;
20894;SDS011;10607;42.066;24.742;2023-03-14T09:52:47;8.32;;;4.60;;
20894;SDS011;10607;42.066;24.742;2023-03-14T09:55:16;11.70;;;5.32;;
20894;SDS011;10607;42.066;24.742;2023-03-14T09:57:42;8.93;;;5.30;;
20894;SDS011;10607;42.066;24.742;2023-03-14T10:00:15;12.43;;;5.85;;
20894;SDS011;10607;42.066;24.742;2023-03-14T10:02:42;7.47;;;4.70;;
20894;SDS011;10607;42.066;24.742;2023-03-14T10:05:13;11.52;;;6.07;;
20894;SDS011;10607;42.066;24.742;2023-03-14T10:07:39;12.25;;;5.75;;
20894;SDS011;10607;42.066;24.742;2023-03-14T10:10:08;8.75;;;4.90;;
20894;SDS011;10607;42.066;24.742;2023-03-14T10:12:35;15.95;;;5.88;;
20894;SDS011;10607;42.066;24.742;2023-03-14T10:15:05;8.57;;;5.72;;
20894;SDS011;10607;42.066;24.742;2023-03-14T10:17:37;10.63;;;5.40;;
20894;SDS011;10607;42.066;24.742;2023-03-14T10:20:03;11.32;;;5.35;;
20894;SDS011;10607;42.066;24.742;2023-03-14T10:22:31;12.20;;;5.30;;
20894;SDS011;10607;42.066;24.742;2023-03-14T10:25:01;13.15;;;5.70;;
20894;SDS011;10607;42.066;24.742;2023-03-14T10:27:31;8.75;;;5.38;;
20894;SDS011;10607;42.066;24.742;2023-03-14T10:30:04;10.80;;;5.18;;
20894;SDS011;10607;42.066;24.742;2023-03-14T10:32:38;9.52;;;4.45;;
20894;SDS011;10607;42.066;24.742;2023-03-14T10:37:59;9.45;;;4.95;;
20894;SDS011;10607;42.066;24.742;2023-03-14T10:40:27;9.38;;;5.15;;
20894;SDS011;10607;42.066;24.742;2023-03-14T10:42:53;7.57;;;4.75;;
20894;SDS011;10607;42.066;24.742;2023-03-14T10:47:49;8.05;;;5.15;;
20894;SDS011;10607;42.066;24.742;2023-03-14T10:50:22;7.43;;;4.70;;
20894;SDS011;10607;42.066;24.742;2023-03-14T10:52:48;6.88;;;4.35;;
20894;SDS011;10607;42.066;24.742;2023-03-14T10:55:13;11.48;;;4.82;;
20894;SDS011;10607;42.066;24.742;2023-03-14T10:57:39;6.63;;;3.70;;
20894;SDS011;10607;42.066;24.742;2023-03-14T11:00:05;6.45;;;4.45;;
20894;SDS011;10607;42.066;24.742;2023-03-14T11:07:42;8.43;;;5.00;;
20894;SDS011;10607;42.066;24.742;2023-03-14T11:26:03;12.02;;;5.55;;
20894;SDS011;10607;42.066;24.742;2023-03-14T11:28:35;22.35;;;5.80;;
20894;SDS011;10607;42.066;24.742;2023-03-14T11:33:41;14.00;;;5.90;;
20894;SDS011;10607;42.066;24.742;2023-03-14T11:36:10;9.30;;;5.53;;
20894;SDS011;10607;42.066;24.742;2023-03-14T11:41:30;12.70;;;6.20;;
20894;SDS011;10607;42.066;24.742;2023-03-14T11:43:57;8.63;;;5.13;;
20894;SDS011;10607;42.066;24.742;2023-03-14T11:46:25;11.52;;;5.72;;
20894;SDS011;10607;42.066;24.742;2023-03-14T11:51:33;7.32;;;5.15;;
20894;SDS011;10607;42.066;24.742;2023-03-14T11:54:04;12.40;;;6.32;;
20894;SDS011;10607;42.066;24.742;2023-03-14T11:56:42;8.35;;;4.68;;
20894;SDS011;10607;42.066;24.742;2023-03-14T11:59:27;9.63;;;4.57;;
20894;SDS011;10607;42.066;24.742;2023-03-14T12:01:57;8.52;;;4.78;;
20894;SDS011;10607;42.066;24.742;2023-03-14T12:07:11;8.57;;;5.07;;
20894;SDS011;10607;42.066;24.742;2023-03-14T12:09:37;10.52;;;4.97;;
20894;SDS011;10607;42.066;24.742;2023-03-14T12:12:03;10.60;;;5.25;;
20894;SDS011;10607;42.066;24.742;2023-03-14T12:14:32;9.48;;;5.35;;
20894;SDS011;10607;42.066;24.742;2023-03-14T12:17:05;9.85;;;4.97;;
20894;SDS011;10607;42.066;24.742;2023-03-14T12:19:32;7.20;;;5.20;;
20894;SDS011;10607;42.066;24.742;2023-03-14T12:24:57;7.90;;;5.00;;
20894;SDS011;10607;42.066;24.742;2023-03-14T12:27:47;6.78;;;4.43;;
20894;SDS011;10607;42.066;24.742;2023-03-14T12:35:37;10.13;;;5.82;;
20894;SDS011;10607;42.066;24.742;2023-03-14T12:38:03;6.97;;;5.28;;
20894;SDS011;10607;42.066;24.742;2023-03-14T12:40:30;9.50;;;5.57;;
20894;SDS011;10607;42.066;24.742;2023-03-14T12:42:57;9.32;;;4.78;;
20894;SDS011;10607;42.066;24.742;2023-03-14T12:45:28;8.93;;;5.47;;
20894;SDS011;10607;42.066;24.742;2023-03-14T12:48:18;15.15;;;5.22;;
20894;SDS011;10607;42.066;24.742;2023-03-14T12:50:41;8.82;;;5.43;;
20894;SDS011;10607;42.066;24.742;2023-03-14T12:56:17;9.73;;;5.05;;
20894;SDS011;10607;42.066;24.742;2023-03-14T12:58:28;7.78;;;5.07;;
20894;SDS011;10607;42.066;24.742;2023-03-14T13:00:58;10.15;;;5.18;;
20894;SDS011;10607;42.066;24.742;2023-03-14T13:03:25;7.97;;;5.28;;
20894;SDS011;10607;42.066;24.742;2023-03-14T13:06:00;15.45;;;4.80;;
20894;SDS011;10607;42.066;24.742;2023-03-14T13:10:57;9.65;;;4.68;;
20894;SDS011;10607;42.066;24.742;2023-03-14T13:13:24;15.32;;;4.63;;
20894;SDS011;10607;42.066;24.742;2023-03-14T13:15:55;8.98;;;4.65;;
20894;SDS011;10607;42.066;24.742;2023-03-14T13:18:27;9.15;;;5.10;;
20894;SDS011;10607;42.066;24.742;2023-03-14T13:20:55;7.20;;;4.72;;
20894;SDS011;10607;42.066;24.742;2023-03-14T13:23:25;6.78;;;4.38;;
20894;SDS011;10607;42.066;24.742;2023-03-14T13:25:51;7.75;;;4.85;;
20894;SDS011;10607;42.066;24.742;2023-03-14T13:28:17;8.82;;;5.00;;
20894;SDS011;10607;42.066;24.742;2023-03-14T13:30:43;8.07;;;4.35;;
20894;SDS011;10607;42.066;24.742;2023-03-14T13:33:13;7.72;;;4.40;;
20894;SDS011;10607;42.066;24.742;2023-03-14T13:35:40;9.68;;;4.57;;
20894;SDS011;10607;42.066;24.742;2023-03-14T13:38:13;12.38;;;4.65;;
20894;SDS011;10607;42.066;24.742;2023-03-14T13:40:39;10.15;;;3.95;;
20894;SDS011;10607;42.066;24.742;2023-03-14T13:45:46;7.05;;;3.67;;
20894;SDS011;10607;42.066;24.742;2023-03-14T13:48:13;7.05;;;3.72;;
20894;SDS011;10607;42.066;24.742;2023-03-14T13:50:43;8.55;;;3.75;;
20894;SDS011;10607;42.066;24.742;2023-03-14T13:53:10;7.65;;;4.25;;
20894;SDS011;10607;42.066;24.742;2023-03-14T13:55:36;6.28;;;4.30;;
20894;SDS011;10607;42.066;24.742;2023-03-14T13:58:01;8.48;;;4.60;;
20894;SDS011;10607;42.066;24.742;2023-03-14T14:00:27;9.68;;;4.32;;
20894;SDS011;10607;42.066;24.742;2023-03-14T14:02:56;7.47;;;3.70;;
20894;SDS011;10607;42.066;24.742;2023-03-14T14:05:22;5.55;;;4.10;;
20894;SDS011;10607;42.066;24.742;2023-03-14T14:07:50;8.15;;;4.15;;
20894;SDS011;10607;42.066;24.742;2023-03-14T14:10:17;13.73;;;4.57;;
20894;SDS011;10607;42.066;24.742;2023-03-14T14:12:43;9.30;;;4.60;;
20894;SDS011;10607;42.066;24.742;2023-03-14T14:17:37;10.07;;;4.38;;
20894;SDS011;10607;42.066;24.742;2023-03-14T14:20:04;9.82;;;4.72;;
20894;SDS011;10607;42.066;24.742;2023-03-14T14:22:31;7.25;;;4.40;;
20894;SDS011;10607;42.066;24.742;2023-03-14T14:24:57;5.70;;;3.67;;
20894;SDS011;10607;42.066;24.742;2023-03-14T14:27:29;8.10;;;3.97;;
20894;SDS011;10607;42.066;24.742;2023-03-14T14:29:58;7.50;;;4.10;;
20894;SDS011;10607;42.066;24.742;2023-03-14T14:32:24;9.00;;;4.05;;
20894;SDS011;10607;42.066;24.742;2023-03-14T14:37:22;10.43;;;4.03;;
20894;SDS011;10607;42.066;24.742;2023-03-14T14:39:48;11.20;;;4.05;;
20894;SDS011;10607;42.066;24.742;2023-03-14T14:42:14;10.02;;;5.05;;
20894;SDS011;10607;42.066;24.742;2023-03-14T14:44:41;16.73;;;5.30;;
20894;SDS011;10607;42.066;24.742;2023-03-14T14:47:11;8.88;;;4.65;;
20894;SDS011;10607;42.066;24.742;2023-03-14T14:49:37;14.23;;;4.95;;
20894;SDS011;10607;42.066;24.742;2023-03-14T14:52:04;6.68;;;4.95;;
20894;SDS011;10607;42.066;24.742;2023-03-14T14:54:34;8.77;;;5.05;;
20894;SDS011;10607;42.066;24.742;2023-03-14T14:57:03;8.60;;;5.00;;
20894;SDS011;10607;42.066;24.742;2023-03-14T14:59:29;7.95;;;4.22;;
20894;SDS011;10607;42.066;24.742;2023-03-14T15:01:58;7.65;;;4.70;;
20894;SDS011;10607;42.066;24.742;2023-03-14T15:04:23;8.23;;;4.93;;
20894;SDS011;10607;42.066;24.742;2023-03-14T15:06:49;12.35;;;5.05;;
20894;SDS011;10607;42.066;24.742;2023-03-14T15:09:15;12.60;;;5.00;;
20894;SDS011;10607;42.066;24.742;2023-03-14T15:11:42;10.00;;;5.07;;
20894;SDS011;10607;42.066;24.742;2023-03-14T15:14:07;8.85;;;3.97;;
20894;SDS011;10607;42.066;24.742;2023-03-14T15:16:32;6.45;;;3.97;;
20894;SDS011;10607;42.066;24.742;2023-03-14T15:18:59;7.40;;;4.25;;
20894;SDS011;10607;42.066;24.742;2023-03-14T15:21:25;6.88;;;4.60;;
20894;SDS011;10607;42.066;24.742;2023-03-14T15:23:50;11.43;;;4.50;;
20894;SDS011;10607;42.066;24.742;2023-03-14T15:26:17;6.45;;;3.83;;
20894;SDS011;10607;42.066;24.742;2023-03-14T15:28:43;5.93;;;4.00;;
20894;SDS011;10607;42.066;24.742;2023-03-14T15:31:09;11.05;;;3.97;;
20894;SDS011;10607;42.066;24.742;2023-03-14T15:33:35;9.77;;;4.05;;
20894;SDS011;10607;42.066;24.742;2023-03-14T15:36:00;6.93;;;4.00;;
20894;SDS011;10607;42.066;24.742;2023-03-14T15:38:26;8.88;;;5.38;;